Time;durP1;ratioP1;P1;durP2;ratioP2;P2;SDS_P1;SDS_P2;PMS_P1;PMS_P2;Temp;Humidity;BMP_temperature;BMP_pressure;BME280_temperature;BME280_humidity;BME280_pressure;Samples;Min_cycle;Max_cycle;Signal;HPM_P1;HPM_P2
2023/06/02 00:01:53;;;;;;;6.40;2.70;;;;;;;13.79;70.74;102066.31;5175557;28;20062;-74
2023/06/02 00:04:26;;;;;;;9.52;2.25;;;;;;;13.79;71.66;102073.38;5174552;28;20058;-74
2023/06/02 00:07:03;;;;;;;8.40;2.50;;;;;;;13.76;72.42;102065.69;5175040;28;20053;-74
2023/06/02 00:09:39;;;;;;;6.45;2.00;;;;;;;13.81;72.30;102072.28;5175097;28;20058;-74
2023/06/02 00:12:10;;;;;;;7.35;2.33;;;;;;;13.72;71.89;102069.53;5174651;28;20026;-74
2023/06/02 00:14:42;;;;;;;5.43;2.25;;;;;;;13.75;71.41;102074.53;5175022;28;20037;-74
2023/06/02 00:17:14;;;;;;;7.38;2.97;;;;;;;13.73;70.87;102068.56;5175317;28;20069;-74
2023/06/02 00:19:47;;;;;;;8.30;2.60;;;;;;;13.67;71.82;102069.03;5174980;28;20033;-74
2023/06/02 00:22:18;;;;;;;;;;;;;;;14.34;67.05;102067.13;5175196;28;20125;-74
2023/06/02 00:24:49;;;;;;;8.10;2.60;;;;;;;13.68;69.68;102060.22;5174816;28;20025;-74
2023/06/02 00:27:21;;;;;;;8.35;3.03;;;;;;;13.72;69.94;102077.44;5174190;28;20620;-74
2023/06/02 00:29:53;;;;;;;9.05;2.78;;;;;;;13.64;70.24;102072.78;5174131;28;20472;-74
2023/06/02 00:32:24;;;;;;;9.50;2.55;;;;;;;13.61;70.52;102075.63;5174228;28;20030;-74
2023/06/02 00:34:55;;;;;;;9.40;3.00;;;;;;;13.62;70.18;102067.59;5173351;28;20033;-74
2023/06/02 00:37:27;;;;;;;7.18;2.47;;;;;;;13.63;70.05;102065.81;5172969;28;20023;-74
2023/06/02 00:39:58;;;;;;;9.13;3.20;;;;;;;13.58;70.62;102065.34;5173136;28;20033;-74
2023/06/02 00:42:30;;;;;;;6.93;2.40;;;;;;;13.55;70.30;102068.22;5172549;28;20022;-74
2023/06/02 00:45:01;;;;;;;8.63;2.72;;;;;;;13.53;68.05;102063.06;5172995;28;20046;-74
2023/06/02 00:47:32;;;;;;;10.90;3.13;;;;;;;13.40;67.30;102070.22;5173803;28;20432;-74
2023/06/02 00:50:04;;;;;;;6.88;2.53;;;;;;;13.32;67.96;102057.66;5172527;28;20038;-74
2023/06/02 00:52:36;;;;;;;8.00;2.70;;;;;;;13.32;67.59;102060.28;5173180;28;20070;-74
2023/06/02 00:55:08;;;;;;;5.82;2.80;;;;;;;13.30;67.81;102064.84;5173293;28;20117;-74
2023/06/02 00:57:40;;;;;;;6.25;2.50;;;;;;;13.31;67.38;102061.25;5174493;28;20118;-74
2023/06/02 01:00:11;;;;;;;10.75;2.97;;;;;;;13.28;67.66;102065.91;5173496;28;20442;-74
2023/06/02 01:02:43;;;;;;;9.82;2.58;;;;;;;13.20;67.11;102068.28;5175055;28;20034;-74
2023/06/02 01:05:14;;;;;;;10.25;2.45;;;;;;;13.24;66.92;102064.47;5173432;28;20448;-74
2023/06/02 01:07:48;;;;;;;7.10;2.50;;;;;;;13.20;67.47;102063.84;5168189;28;20491;-74
2023/06/02 01:10:20;;;;;;;9.32;2.85;;;;;;;13.08;66.40;102059.53;5173874;28;20027;-74
2023/06/02 01:12:53;;;;;;;8.88;3.17;;;;;;;13.09;66.91;102072.53;5173806;28;20026;-74
2023/06/02 01:15:24;;;;;;;8.50;2.47;;;;;;;13.11;66.50;102067.19;5174752;28;20039;-74
2023/06/02 01:17:57;;;;;;;9.23;2.92;;;;;;;13.07;66.15;102061.31;5174409;28;20404;-74
2023/06/02 01:20:30;;;;;;;8.32;2.85;;;;;;;13.08;67.15;102070.88;5174808;28;20026;-74
2023/06/02 01:23:15;;;;;;;;;;;;;;;13.79;62.89;102066.31;5174392;28;20051;-74
2023/06/02 01:25:47;;;;;;;10.77;2.63;;;;;;;13.08;64.47;102072.69;5174449;28;20024;-74
2023/06/02 01:28:18;;;;;;;11.43;3.72;;;;;;;13.07;65.50;102068.38;5173283;28;20109;-74
2023/06/02 01:30:55;;;;;;;7.68;3.42;;;;;;;13.10;65.32;102079.47;5171449;28;20387;-74
2023/06/02 01:33:34;;;;;;;10.43;3.40;;;;;;;13.06;65.10;102069.31;5173265;28;20567;-75
2023/06/02 01:36:06;;;;;;;11.23;3.42;;;;;;;13.03;66.96;102080.94;5173764;28;20137;-75
2023/06/02 01:38:40;;;;;;;8.73;3.10;;;;;;;13.04;65.25;102058.09;5172203;28;20112;-75
2023/06/02 01:41:13;;;;;;;11.15;3.03;;;;;;;13.01;65.80;102072.28;5172828;28;20030;-75
2023/06/02 01:43:46;;;;;;;15.82;3.28;;;;;;;13.10;65.57;102063.69;5172315;28;20039;-75
2023/06/02 01:46:18;;;;;;;;;;;;;;;13.72;62.61;102066.91;5173415;28;20026;-75
2023/06/02 01:48:52;;;;;;;12.63;3.78;;;;;;;13.23;65.04;102071.53;5173200;28;19925;-75
2023/06/02 01:51:24;;;;;;;8.13;3.22;;;;;;;13.15;66.17;102055.47;5171962;28;20069;-75
2023/06/02 01:53:56;;;;;;;10.43;3.50;;;;;;;13.13;65.73;102058.19;5176841;28;20042;-75
2023/06/02 01:56:27;;;;;;;8.95;3.50;;;;;;;13.13;65.25;102057.38;5177016;28;20109;-75
2023/06/02 01:58:58;;;;;;;13.60;3.05;;;;;;;13.20;65.91;102063.00;5177515;28;20431;-73
2023/06/02 02:01:30;;;;;;;10.15;2.97;;;;;;;13.29;65.32;102068.41;5177661;28;20030;-73
2023/06/02 02:04:02;;;;;;;12.38;3.67;;;;;;;13.21;64.74;102056.78;5177359;28;20443;-74
2023/06/02 02:06:34;;;;;;;11.70;3.35;;;;;;;13.26;65.10;102060.78;5178060;28;20081;-74
2023/06/02 02:09:07;;;;;;;11.85;3.08;;;;;;;13.17;65.81;102060.59;5176794;28;20041;-74
2023/06/02 02:11:38;;;;;;;9.75;3.05;;;;;;;13.23;65.36;102063.66;5176690;28;20436;-74
2023/06/02 02:14:13;;;;;;;14.10;3.78;;;;;;;13.25;65.92;102063.50;5176814;28;20066;-74
2023/06/02 02:16:49;;;;;;;9.18;3.38;;;;;;;13.26;66.03;102063.41;5176650;28;20415;-74
2023/06/02 02:19:22;;;;;;;8.77;2.92;;;;;;;13.19;65.20;102059.53;5158899;28;20062;-74
2023/06/02 02:21:53;;;;;;;11.27;3.60;;;;;;;13.27;66.29;102059.81;5177643;28;20108;-74
2023/06/02 02:24:25;;;;;;;12.10;2.80;;;;;;;13.26;65.92;102060.78;5178017;28;20023;-74
2023/06/02 02:26:57;;;;;;;9.35;3.15;;;;;;;13.29;66.33;102064.97;5177085;28;20038;-74
2023/06/02 02:29:29;;;;;;;8.20;2.85;;;;;;;13.30;67.69;102061.38;5176935;28;20564;-74
2023/06/02 02:32:00;;;;;;;10.40;2.88;;;;;;;13.31;66.52;102065.69;5176981;28;20018;-74
2023/06/02 02:34:32;;;;;;;10.50;3.15;;;;;;;13.30;66.27;102061.38;5176943;28;20041;-74
2023/06/02 02:37:06;;;;;;;10.63;2.90;;;;;;;13.30;67.74;102054.31;5177114;28;20042;-74
2023/06/02 02:39:38;;;;;;;13.27;3.55;;;;;;;13.28;67.83;102056.22;5176927;28;20034;-74
2023/06/02 02:42:09;;;;;;;9.35;3.05;;;;;;;13.29;67.66;102052.63;5176423;28;20034;-74
2023/06/02 02:44:40;;;;;;;8.30;2.75;;;;;;;13.34;68.12;102055.75;5177385;28;20057;-73
2023/06/02 02:47:12;;;;;;;11.52;3.22;;;;;;;13.42;68.80;102054.34;5178177;28;20070;-74
2023/06/02 02:49:43;;;;;;;13.88;4.05;;;;;;;13.33;68.30;102054.09;5177194;28;20023;-73
2023/06/02 02:52:14;;;;;;;9.05;2.47;;;;;;;13.27;67.68;102049.28;5177169;28;20031;-74
2023/06/02 02:54:46;;;;;;;8.30;3.35;;;;;;;13.33;68.29;102051.47;5176554;28;20133;-74
2023/06/02 02:57:17;;;;;;;11.38;2.90;;;;;;;13.24;67.86;102052.16;5176998;28;20050;-74
2023/06/02 02:59:49;;;;;;;12.85;2.60;;;;;;;13.17;68.35;102029.03;5176528;28;20031;-74
2023/06/02 03:02:21;;;;;;;13.27;3.50;;;;;;;13.20;67.94;102048.06;5175874;28;20581;-74
2023/06/02 03:04:52;;;;;;;8.63;3.15;;;;;;;13.22;69.13;102054.06;5175423;28;20491;-74
2023/06/02 03:07:24;;;;;;;9.70;3.08;;;;;;;13.25;68.38;102048.56;5176369;28;20553;-74
2023/06/02 03:09:56;;;;;;;8.67;2.87;;;;;;;13.22;69.06;102047.91;5177952;28;20088;-74
2023/06/02 03:12:27;;;;;;;12.38;3.30;;;;;;;13.19;69.80;102056.91;5175986;28;20038;-73
2023/06/02 03:14:59;;;;;;;14.50;3.92;;;;;;;13.16;70.36;102054.50;5176485;28;20038;-73
2023/06/02 03:17:32;;;;;;;13.80;3.22;;;;;;;13.25;70.56;102061.72;5175903;28;20074;-73
2023/06/02 03:20:08;;;;;;;11.68;3.30;;;;;;;13.17;70.97;102058.81;5176271;28;20081;-74
2023/06/02 03:22:40;;;;;;;10.95;3.22;;;;;;;13.16;71.14;102062.41;5175438;28;20054;-74
2023/06/02 03:25:11;;;;;;;14.00;3.30;;;;;;;13.13;70.52;102062.63;5176588;28;20601;-73
2023/06/02 03:27:42;;;;;;;11.90;3.45;;;;;;;13.14;69.75;102059.03;5176681;28;20090;-73
2023/06/02 03:30:14;;;;;;;12.43;2.88;;;;;;;13.04;69.50;102063.34;5174405;28;20030;-73
2023/06/02 03:32:45;;;;;;;11.73;2.88;;;;;;;13.00;69.98;102065.38;5176145;28;20484;-73
2023/06/02 03:35:16;;;;;;;8.60;3.13;;;;;;;13.05;69.45;102065.84;5175661;28;20031;-73
2023/06/02 03:37:48;;;;;;;13.80;3.45;;;;;;;13.02;69.41;102068.69;5176543;28;20126;-74
2023/06/02 03:40:19;;;;;;;10.90;3.10;;;;;;;12.98;67.88;102064.63;5175254;28;20475;-73
2023/06/02 03:42:51;;;;;;;10.05;3.28;;;;;;;13.00;68.11;102078.53;5176772;28;20027;-73
2023/06/02 03:45:22;;;;;;;11.90;3.30;;;;;;;12.96;68.57;102071.81;5158638;28;20033;-74
2023/06/02 03:47:53;;;;;;;11.07;3.10;;;;;;;12.98;69.35;102076.94;5175935;28;20038;-74
2023/06/02 03:50:24;;;;;;;11.38;3.33;;;;;;;12.95;68.48;102074.53;5176198;28;20108;-74
2023/06/02 03:52:56;;;;;;;12.13;3.08;;;;;;;12.94;68.27;102078.97;5176095;28;20490;-74
2023/06/02 03:55:27;;;;;;;9.98;3.13;;;;;;;12.89;67.06;102075.84;5174506;28;20645;-74
2023/06/02 03:57:58;;;;;;;10.95;2.90;;;;;;;12.87;67.32;102072.50;5176375;28;20050;-74
2023/06/02 04:00:29;;;;;;;13.80;3.03;;;;;;;12.84;67.79;102064.81;5175915;28;20034;-73
2023/06/02 04:03:01;;;;;;;11.02;2.97;;;;;;;12.89;68.70;102083.75;5175494;28;20031;-73
2023/06/02 04:05:32;;;;;;;13.43;3.60;;;;;;;12.86;68.75;102074.28;5175928;28;20070;-73
2023/06/02 04:08:03;;;;;;;11.35;3.30;;;;;;;12.87;68.86;102081.22;5176089;28;20035;-73
2023/06/02 04:10:35;;;;;;;6.85;2.53;;;;;;;12.91;69.40;102084.44;5165107;28;20030;-73
2023/06/02 04:13:06;;;;;;;12.57;2.95;;;;;;;12.84;68.95;102086.72;5174064;28;20520;-74
2023/06/02 04:15:37;;;;;;;7.82;2.88;;;;;;;12.89;69.17;102084.59;5176387;28;20122;-74
2023/06/02 04:18:09;;;;;;;9.65;2.85;;;;;;;12.85;68.29;102085.75;5173980;28;20031;-74
2023/06/02 04:20:40;;;;;;;8.95;3.03;;;;;;;12.76;67.64;102083.81;5176140;28;20089;-73
2023/06/02 04:23:11;;;;;;;8.77;3.25;;;;;;;12.74;67.61;102087.53;5176157;28;20074;-73
2023/06/02 04:25:43;;;;;;;9.55;2.60;;;;;;;12.71;67.42;102083.31;5175675;28;20026;-73
2023/06/02 04:28:15;;;;;;;12.70;3.50;;;;;;;12.70;67.57;102086.06;5174519;28;20060;-74
2023/06/02 04:30:53;;;;;;;9.30;2.95;;;;;;;12.84;67.76;102085.88;5162219;28;20026;-74
2023/06/02 04:33:25;;;;;;;10.25;3.08;;;;;;;12.70;66.90;102083.44;5175740;28;20121;-73
2023/06/02 04:35:56;;;;;;;9.45;3.38;;;;;;;12.68;66.69;102074.81;5175197;28;20522;-73
2023/06/02 04:38:28;;;;;;;10.52;3.15;;;;;;;12.73;66.20;102080.56;5176437;28;20070;-74
2023/06/02 04:41:01;;;;;;;10.68;3.40;;;;;;;12.70;66.12;102079.03;5174610;28;20030;-73
2023/06/02 04:43:34;;;;;;;10.75;3.33;;;;;;;12.64;65.47;102074.19;5175631;28;20524;-73
2023/06/02 04:46:06;;;;;;;10.02;2.88;;;;;;;12.71;65.88;102080.69;5175439;28;20117;-73
2023/06/02 04:48:39;;;;;;;10.00;2.80;;;;;;;12.66;65.75;102077.56;5174646;28;20030;-73
2023/06/02 04:51:10;;;;;;;9.38;2.70;;;;;;;12.75;65.32;102083.94;5174732;28;20504;-73
2023/06/02 04:53:42;;;;;;;7.95;2.78;;;;;;;12.75;65.80;102086.56;5174642;28;20027;-73
2023/06/02 04:56:13;;;;;;;7.63;3.20;;;;;;;12.76;65.52;102086.44;5174772;28;20065;-73
2023/06/02 04:58:44;;;;;;;7.97;3.22;;;;;;;12.73;66.02;102086.69;5174216;28;20030;-74
2023/06/02 05:01:15;;;;;;;9.85;2.90;;;;;;;12.69;65.83;102090.50;5174316;28;20081;-74
2023/06/02 05:03:47;;;;;;;9.40;3.25;;;;;;;12.69;66.34;102094.88;5173629;28;20041;-73
2023/06/02 05:06:18;;;;;;;10.35;3.00;;;;;;;12.74;65.67;102096.25;5174287;28;20117;-74
2023/06/02 05:08:50;;;;;;;10.05;2.63;;;;;;;12.73;65.69;102097.19;5174160;28;20084;-73
2023/06/02 05:11:23;;;;;;;10.35;2.80;;;;;;;12.76;66.34;102104.84;5175519;28;20030;-73
2023/06/02 05:13:55;;;;;;;8.35;2.35;;;;;;;12.81;65.83;102107.16;5176506;28;20057;-73
2023/06/02 05:16:28;;;;;;;12.23;3.13;;;;;;;12.81;66.05;102102.72;5175913;28;20437;-74
2023/06/02 05:18:59;;;;;;;10.80;2.83;;;;;;;12.88;65.40;102101.31;5174790;28;20163;-73
2023/06/02 05:21:31;;;;;;;7.47;2.78;;;;;;;12.80;65.77;102094.94;5173399;28;20121;-73
2023/06/02 05:24:02;;;;;;;10.95;2.63;;;;;;;12.85;65.23;102106.81;5175159;28;20353;-73
2023/06/02 05:26:33;;;;;;;8.98;2.40;;;;;;;12.90;65.33;102106.47;5174194;28;20035;-73
2023/06/02 05:29:05;;;;;;;11.98;3.15;;;;;;;12.83;64.23;102107.88;5174191;28;20077;-73
2023/06/02 05:31:36;;;;;;;8.63;2.40;;;;;;;12.89;63.65;102104.78;5174521;28;20031;-73
2023/06/02 05:34:07;;;;;;;5.47;2.35;;;;;;;12.90;63.41;102111.72;5174428;28;20054;-73
2023/06/02 05:36:38;;;;;;;9.70;2.70;;;;;;;12.85;63.24;102106.81;5177214;28;20031;-73
2023/06/02 05:39:10;;;;;;;11.27;2.45;;;;;;;12.81;63.19;102099.25;5177059;28;20030;-74
2023/06/02 05:41:42;;;;;;;8.02;2.58;;;;;;;12.82;63.70;102099.13;5173242;28;20031;-74
2023/06/02 05:44:14;;;;;;;7.63;2.65;;;;;;;12.91;64.17;102108.97;5175128;28;20030;-73
2023/06/02 05:46:45;;;;;;;6.38;2.78;;;;;;;12.80;62.94;102108.91;5175034;28;20030;-73
2023/06/02 05:49:16;;;;;;;7.85;2.67;;;;;;;12.89;63.92;102105.63;5172652;28;20036;-73
2023/06/02 05:51:48;;;;;;;11.77;3.08;;;;;;;12.85;64.16;102104.19;5173638;28;20069;-74
2023/06/02 05:54:19;;;;;;;9.65;2.55;;;;;;;12.96;64.25;102113.91;5167787;28;20123;-74
2023/06/02 05:56:50;;;;;;;10.82;3.08;;;;;;;12.95;63.57;102108.75;5172691;28;20034;-74
2023/06/02 05:59:21;;;;;;;8.30;2.40;;;;;;;13.04;64.39;102108.91;5173364;28;20122;-74
2023/06/02 06:01:53;;;;;;;12.55;3.40;;;;;;;13.03;65.10;102111.63;5171787;28;20022;-72
2023/06/02 06:04:24;;;;;;;9.65;2.45;;;;;;;13.07;63.20;102113.09;5154823;28;20025;-73
2023/06/02 06:06:55;;;;;;;11.93;3.17;;;;;;;13.09;63.82;102105.91;5173954;28;20094;-73
2023/06/02 06:09:26;;;;;;;10.65;2.83;;;;;;;13.08;64.50;102106.88;5176446;28;20023;-73
2023/06/02 06:11:58;;;;;;;12.38;3.15;;;;;;;13.09;67.95;102106.75;5176347;28;20031;-74
2023/06/02 06:14:29;;;;;;;11.18;3.17;;;;;;;13.06;67.26;102108.78;5176683;28;20037;-74
2023/06/02 06:17:01;;;;;;;13.05;2.75;;;;;;;13.14;65.67;102111.66;5173026;28;20053;-73
2023/06/02 06:19:32;;;;;;;9.65;2.60;;;;;;;13.10;64.57;102107.59;5170419;28;20039;-74
2023/06/02 06:22:03;;;;;;;10.40;2.97;;;;;;;13.11;63.79;102110.13;5171030;28;20125;-74
2023/06/02 06:24:35;;;;;;;9.18;2.42;;;;;;;13.08;65.01;102114.78;5174318;28;20118;-74
2023/06/02 06:27:06;;;;;;;7.97;2.50;;;;;;;13.10;64.53;102113.69;5172314;28;20054;-74
2023/06/02 06:29:37;;;;;;;11.00;3.15;;;;;;;13.14;63.88;102125.69;5172094;28;20068;-74
2023/06/02 06:32:09;;;;;;;10.60;2.38;;;;;;;13.16;62.89;102122.94;5171851;28;20069;-74
2023/06/02 06:34:40;;;;;;;13.40;3.00;;;;;;;13.25;64.09;102114.34;5172409;28;20030;-74
2023/06/02 06:37:11;;;;;;;9.70;2.38;;;;;;;13.23;62.75;102118.91;5171945;28;20034;-74
2023/06/02 06:39:43;;;;;;;11.38;2.50;;;;;;;13.31;64.17;102118.31;5172608;28;20104;-74
2023/06/02 06:42:14;;;;;;;14.82;2.70;;;;;;;13.29;61.94;102121.06;5174689;28;20027;-74
2023/06/02 06:44:45;;;;;;;12.07;3.22;;;;;;;13.29;60.76;102114.97;5175732;28;20026;-74
2023/06/02 06:47:18;;;;;;;10.02;2.42;;;;;;;13.30;61.47;102117.50;5174883;28;20106;-74
2023/06/02 06:49:51;;;;;;;8.43;2.63;;;;;;;13.31;60.87;102113.06;5158653;28;20042;-73
2023/06/02 06:52:23;;;;;;;10.55;2.47;;;;;;;13.34;61.65;102108.41;5175195;28;20113;-74
2023/06/02 06:54:54;;;;;;;9.23;2.88;;;;;;;13.41;61.31;102115.81;5176338;28;20033;-74
2023/06/02 06:57:25;;;;;;;8.90;2.70;;;;;;;13.47;61.86;102118.81;5175048;28;20118;-74
2023/06/02 06:59:56;;;;;;;12.57;3.00;;;;;;;13.39;61.64;102122.03;5175428;28;20358;-74
2023/06/02 07:02:28;;;;;;;10.55;2.90;;;;;;;13.41;59.70;102118.44;5175040;28;20117;-74
2023/06/02 07:04:59;;;;;;;11.35;2.58;;;;;;;13.58;62.22;102120.63;5176284;28;20023;-74
2023/06/02 07:07:31;;;;;;;12.52;2.70;;;;;;;13.65;60.86;102134.19;5174758;28;20125;-74
2023/06/02 07:10:03;;;;;;;8.77;2.53;;;;;;;13.74;61.12;102129.00;5175307;28;20054;-74
2023/06/02 07:12:34;;;;;;;8.85;2.35;;;;;;;13.60;58.64;102129.28;5175315;28;20412;-74
2023/06/02 07:15:07;;;;;;;9.38;2.83;;;;;;;13.69;59.50;102118.00;5175269;28;20035;-74
2023/06/02 07:17:42;;;;;;;13.13;2.95;;;;;;;13.85;59.36;102123.75;5174784;28;20837;-74
2023/06/02 07:20:13;;;;;;;9.23;2.38;;;;;;;13.84;60.65;102122.09;5175919;28;20101;-74
2023/06/02 07:22:44;;;;;;;8.80;2.60;;;;;;;13.97;58.12;102123.75;5156061;28;20425;-74
2023/06/02 07:25:16;;;;;;;8.40;2.17;;;;;;;14.00;58.96;102126.16;5174614;28;20072;-74
2023/06/02 07:27:47;;;;;;;10.52;3.10;;;;;;;14.05;56.64;102134.50;5174772;28;20018;-74
2023/06/02 07:30:18;;;;;;;12.07;3.15;;;;;;;14.02;58.04;102140.06;5174928;28;20562;-74
2023/06/02 07:32:50;;;;;;;8.45;2.25;;;;;;;14.12;57.70;102135.72;5173827;28;20037;-74
2023/06/02 07:35:21;;;;;;;9.88;3.40;;;;;;;14.00;56.13;102134.06;5174567;28;20031;-74
2023/06/02 07:37:53;;;;;;;7.05;2.17;;;;;;;14.07;58.40;102143.16;5174529;28;20018;-74
2023/06/02 07:40:24;;;;;;;11.95;2.60;;;;;;;14.01;55.51;102136.56;5173994;28;20034;-74
2023/06/02 07:42:56;;;;;;;11.18;2.67;;;;;;;14.08;58.56;102131.66;5174294;28;20080;-74
2023/06/02 07:45:27;;;;;;;8.60;2.97;;;;;;;14.19;58.09;102136.91;5174552;28;20069;-74
2023/06/02 07:47:58;;;;;;;9.18;2.80;;;;;;;14.18;55.81;102129.13;5174097;28;20602;-74
2023/06/02 07:50:29;;;;;;;12.52;2.58;;;;;;;14.29;56.56;102124.69;5175172;28;20051;-74
2023/06/02 07:53:02;;;;;;;14.63;2.67;;;;;;;14.26;56.42;102119.63;5174348;28;20484;-74
2023/06/02 07:55:34;;;;;;;10.30;2.65;;;;;;;14.26;55.60;102124.06;5174316;28;20058;-74
2023/06/02 07:58:05;;;;;;;9.50;2.40;;;;;;;14.32;55.73;102128.88;5173677;28;20608;-74
2023/06/02 08:00:38;;;;;;;9.73;3.03;;;;;;;14.48;56.02;102126.66;5173099;28;20034;-74
2023/06/02 08:03:09;;;;;;;9.93;3.00;;;;;;;14.62;56.43;102130.84;5173730;28;20102;-74
2023/06/02 08:05:40;;;;;;;10.82;2.95;;;;;;;14.61;55.19;102126.53;5174451;28;20041;-74
2023/06/02 08:08:12;;;;;;;8.95;2.55;;;;;;;14.60;54.63;102127.50;5173720;28;20036;-74
2023/06/02 08:10:43;;;;;;;8.40;2.35;;;;;;;14.74;55.72;102119.31;5174897;28;20396;-74
2023/06/02 08:13:15;;;;;;;10.05;2.10;;;;;;;14.58;53.74;102117.09;5172574;28;20178;-74
2023/06/02 08:15:46;;;;;;;8.82;2.63;;;;;;;14.77;54.62;102121.69;5174200;28;20443;-74
2023/06/02 08:18:18;;;;;;;7.45;2.65;;;;;;;14.95;53.87;102123.75;5173258;28;20377;-74
2023/06/02 08:20:49;;;;;;;7.68;2.17;;;;;;;15.03;52.66;102116.03;5174344;28;20027;-73
2023/06/02 08:23:21;;;;;;;8.90;2.40;;;;;;;15.29;52.55;102116.50;5173179;28;20097;-74
2023/06/02 08:25:54;;;;;;;8.40;3.40;;;;;;;15.41;51.67;102126.00;5173693;28;20026;-74
2023/06/02 08:28:29;;;;;;;13.57;3.42;;;;;;;15.23;50.76;102131.06;5172441;28;20458;-74
2023/06/02 08:31:01;;;;;;;11.85;2.50;;;;;;;15.39;50.78;102127.94;5173108;28;20078;-74
2023/06/02 08:33:33;;;;;;;11.43;3.00;;;;;;;15.49;51.72;102120.94;5173812;28;20051;-74
2023/06/02 08:36:06;;;;;;;11.60;3.10;;;;;;;15.74;51.07;102127.59;5172947;28;20027;-74
2023/06/02 08:38:40;;;;;;;10.02;3.08;;;;;;;15.98;52.29;102123.78;5173675;28;20062;-74
2023/06/02 08:41:14;;;;;;;6.68;2.42;;;;;;;16.20;50.62;102120.94;5173035;28;20029;-75
2023/06/02 08:43:45;;;;;;;9.48;2.40;;;;;;;16.30;49.39;102116.50;5171940;28;20034;-75
2023/06/02 08:46:16;;;;;;;11.02;3.08;;;;;;;16.66;47.86;102116.81;5172751;28;20023;-75
2023/06/02 08:48:51;;;;;;;10.38;2.63;;;;;;;16.83;47.57;102119.78;5172852;28;20037;-75
2023/06/02 08:51:22;;;;;;;14.35;3.75;;;;;;;16.78;47.29;102112.25;5172712;28;20336;-75
2023/06/02 08:53:54;;;;;;;8.23;2.30;;;;;;;17.23;46.71;102115.13;5172185;28;20030;-75
2023/06/02 08:56:25;;;;;;;7.63;2.80;;;;;;;17.21;46.77;102114.44;5174095;28;20066;-75
2023/06/02 08:58:56;;;;;;;9.55;3.10;;;;;;;17.39;46.23;102119.03;5171680;28;20030;-75
2023/06/02 09:01:28;;;;;;;11.10;2.58;;;;;;;17.54;45.00;102114.94;5187686;28;20061;-72
2023/06/02 09:03:59;;;;;;;7.95;2.65;;;;;;;17.45;46.39;102106.00;5172930;28;20023;-73
2023/06/02 09:06:31;;;;;;;10.93;2.85;;;;;;;17.48;46.73;102104.88;5173540;28;20052;-74
2023/06/02 09:09:03;;;;;;;9.80;2.88;;;;;;;17.69;45.53;102108.16;5171984;28;20547;-73
2023/06/02 09:11:34;;;;;;;10.15;2.72;;;;;;;17.82;44.99;102102.56;5172433;28;20031;-74
2023/06/02 09:14:22;;;;;;;12.75;3.58;;;;;;;18.21;44.29;102103.16;5172699;28;20015;-74
2023/06/02 09:16:53;;;;;;;12.07;2.80;;;;;;;17.89;44.43;102103.63;5172173;28;20043;-74
2023/06/02 09:19:24;;;;;;;11.82;3.50;;;;;;;18.23;43.62;102101.22;5172626;28;20095;-74
2023/06/02 09:22:05;;;;;;;8.55;2.60;;;;;;;18.51;44.25;102109.09;5171489;28;20049;-74
2023/06/02 09:24:36;;;;;;;7.57;3.15;;;;;;;18.21;43.42;102113.78;5170747;28;20863;-74
2023/06/02 09:27:12;;;;;;;8.00;2.83;;;;;;;18.11;44.46;102109.53;5171838;28;20506;-74
2023/06/02 09:29:46;;;;;;;13.23;3.10;;;;;;;17.92;43.75;102108.66;5172860;28;20027;-74
2023/06/02 09:32:18;;;;;;;10.98;3.05;;;;;;;17.88;44.95;102104.63;5171105;28;20038;-74
2023/06/02 09:34:50;;;;;;;10.73;2.47;;;;;;;17.80;44.00;102101.03;5172125;28;20066;-74
2023/06/02 09:37:23;;;;;;;10.57;3.05;;;;;;;17.76;44.55;102097.81;5172756;28;20105;-74
2023/06/02 09:39:57;;;;;;;9.45;2.60;;;;;;;17.84;46.11;102103.25;5170757;28;20132;-74
2023/06/02 09:42:43;;;;;;;10.02;3.00;;;;;;;18.14;45.04;102095.94;5172388;28;20023;-74
2023/06/02 09:45:14;;;;;;;8.65;2.95;;;;;;;18.12;44.28;102096.13;5171425;28;20019;-73
2023/06/02 09:47:47;;;;;;;8.93;2.53;;;;;;;18.33;45.08;102089.69;5172449;28;20038;-73
2023/06/02 09:50:32;;;;;;;9.90;2.60;;;;;;;18.46;44.46;102096.28;5171612;28;20023;-73
2023/06/02 09:53:08;;;;;;;9.80;2.88;;;;;;;18.46;44.79;102093.66;5172440;28;20500;-74
2023/06/02 09:55:39;;;;;;;10.18;2.80;;;;;;;18.65;44.25;102087.34;5172591;28;20130;-73
2023/06/02 09:58:11;;;;;;;11.50;3.22;;;;;;;18.66;43.43;102088.19;5175003;28;20019;-73
2023/06/02 10:00:42;;;;;;;11.13;3.22;;;;;;;18.85;44.84;102089.84;5171888;28;20054;-73
2023/06/02 10:03:14;;;;;;;9.43;3.00;;;;;;;18.76;43.57;102088.97;5170950;28;20742;-73
2023/06/02 10:06:12;;;;;;;10.25;3.50;;;;;;;18.92;42.70;102081.13;5171903;28;20739;-73
2023/06/02 10:08:58;;;;;;;11.43;3.40;;;;;;;18.88;43.57;102085.06;5171664;28;20121;-73
2023/06/02 10:11:35;;;;;;;11.30;3.10;;;;;;;18.67;43.15;102082.69;5172581;28;20038;-73
2023/06/02 10:14:10;;;;;;;10.10;3.17;;;;;;;18.47;44.10;102086.50;5178364;28;20050;-73
2023/06/02 10:17:01;;;;;;;9.30;3.13;;;;;;;18.48;43.90;102088.16;5181734;28;20393;-73
2023/06/02 10:19:47;;;;;;;8.93;3.03;;;;;;;18.57;44.87;102078.50;5185080;28;20041;-73
2023/06/02 10:22:54;;;;;;;11.10;2.97;;;;;;;18.62;44.80;102079.69;5181830;28;20022;-73
2023/06/02 10:25:48;;;;;;;8.88;3.80;;;;;;;18.69;44.18;102086.06;5160966;28;20030;-73
2023/06/02 10:28:20;;;;;;;10.52;2.95;;;;;;;18.71;44.83;102083.25;5186711;28;20065;-72
2023/06/02 10:31:07;;;;;;;14.40;3.13;;;;;;;19.08;44.41;102091.03;5186502;28;20037;-73
2023/06/02 10:33:46;;;;;;;15.02;2.85;;;;;;;18.95;44.71;102090.59;5181218;28;20053;-73
2023/06/02 10:36:18;;;;;;;8.80;3.10;;;;;;;19.06;44.58;102090.34;5182592;28;20022;-73
2023/06/02 10:38:49;;;;;;;10.43;2.83;;;;;;;19.18;43.35;102089.09;5184272;28;20026;-73
2023/06/02 10:41:23;;;;;;;6.60;2.65;;;;;;;19.28;43.06;102080.19;5183929;28;20114;-73
2023/06/02 10:44:21;;;;;;;8.60;3.10;;;;;;;19.48;43.31;102086.13;5181123;28;20041;-73
2023/06/02 10:47:17;;;;;;;11.88;3.10;;;;;;;19.74;43.43;102072.81;5186009;28;20552;-73
2023/06/02 10:49:58;;;;;;;10.13;3.10;;;;;;;19.72;43.31;102072.97;5180904;28;20022;-73
2023/06/02 10:52:32;;;;;;;12.32;3.28;;;;;;;19.95;42.55;102070.56;5185163;28;20030;-73
2023/06/02 10:55:12;;;;;;;7.13;3.67;;;;;;;20.27;43.34;102077.78;5180696;28;20258;-73
2023/06/02 10:57:59;;;;;;;11.13;3.60;;;;;;;20.25;42.91;102078.94;5179249;28;20030;-73
2023/06/02 11:00:36;;;;;;;11.73;2.97;;;;;;;19.95;43.00;102088.34;5181618;28;20033;-73
2023/06/02 11:03:10;;;;;;;10.70;3.35;;;;;;;19.63;42.77;102082.75;5177070;28;20421;-73
2023/06/02 11:05:42;;;;;;;11.32;2.88;;;;;;;19.59;43.74;102085.84;5181400;28;20026;-73
2023/06/02 11:08:21;;;;;;;9.93;2.95;;;;;;;19.66;42.90;102078.91;5181033;28;20377;-73
2023/06/02 11:10:57;;;;;;;8.43;2.80;;;;;;;20.05;43.71;102068.59;5181783;28;20026;-73
2023/06/02 11:13:29;;;;;;;10.52;2.83;;;;;;;20.25;42.40;102068.28;5178734;28;20129;-73
2023/06/02 11:16:00;;;;;;;8.00;3.00;;;;;;;20.42;43.05;102073.50;5183715;28;20022;-73
2023/06/02 11:18:31;;;;;;;13.03;3.30;;;;;;;20.22;42.53;102077.44;5182024;28;20053;-73
2023/06/02 11:21:16;;;;;;;12.37;3.27;;;;;;;20.62;42.91;102065.19;5182533;28;20015;-73
2023/06/02 11:23:48;;;;;;;11.13;3.67;;;;;;;20.67;42.56;102062.88;5177439;28;20140;-73
2023/06/02 11:26:21;;;;;;;9.00;3.57;;;;;;;20.87;42.13;102064.19;5174285;28;20026;-73
2023/06/02 11:28:52;;;;;;;;;;;;;;;21.69;41.18;102065.81;5175267;28;20244;-73
2023/06/02 11:31:23;;;;;;;11.75;3.22;;;;;;;20.88;41.96;102068.53;5173706;28;19918;-72
2023/06/02 11:33:55;;;;;;;9.33;3.27;;;;;;;20.70;42.35;102072.34;5174510;28;20018;-73
2023/06/02 11:36:30;;;;;;;9.57;3.20;;;;;;;20.83;41.98;102073.50;5174992;28;20030;-73
2023/06/02 11:39:09;;;;;;;12.10;3.22;;;;;;;20.65;42.31;102070.19;5176411;28;20030;-73
2023/06/02 11:41:54;;;;;;;9.90;3.58;;;;;;;21.06;42.59;102062.16;5174192;28;20034;-73
2023/06/02 11:44:25;;;;;;;12.85;4.10;;;;;;;20.43;41.99;102063.66;5174857;28;20029;-72
2023/06/02 11:46:56;;;;;;;9.43;4.10;;;;;;;20.58;43.07;102067.38;5175100;28;20015;-73
2023/06/02 11:49:37;;;;;;;10.23;3.30;;;;;;;20.94;42.96;102069.66;5174825;28;20034;-73